Aeroporto :
LOGIN :

Iscrizione | Disclaimer

   EN    FR    IT 

 










Sommario :    VFR   VFR Marginale   IFR   IFR Intensivo   IFR Molto Intensivo
Visibilità : 
Base nubi : 
>= 8 km
>= 3000ft
5 / 8 km
1000 / 3000 ft
1500m / 5 km
500 / 1000 ft
800 / 1500m
200 / 500 ft
< 800m
< 200 ft
Simboli :   Temporali  Nebbia  Neve Forte  Precipitazioni Forti  Vento > 20 kt
SIGMETs :   Varie  Temporali  Ghiacco  Turbolenza  Onda orograficha  Ceneri Vulcaniche






- Altitudine del aeroporto : 1302 ft
- Codice IATA : GNB


LFLS - Grenoble / St. Geoirs

ULTIMO METAR :
  • 200400Z AUTO 09003KT 050V130 3600 -RA BR FEW008/// SCT014/// OVC021/// ///CB 12/11 Q1018 TEMPO RA BKN005

METARs OBSOLETI :
  • 200330Z AUTO 12004KT 9000 4300 +DZ FEW008/// BKN014/// BKN023/// ///CB 12/11 Q1018 TEMPO 4000 RA BKN005
  • 200300Z AUTO VRB03KT 5000 -RA BR FEW010/// OVC032/// ///TCU 12/11 Q1018 TEMPO RA BKN005
  • 200230Z AUTO 06002KT 4700 -RA BR FEW009/// SCT014/// OVC035/// ///TCU 12/11 Q1018 TEMPO RA BKN005
  • 200200Z AUTO 00000KT 7000 RA FEW005/// OVC036/// ///TCU 12/12 Q1018
  • 200130Z AUTO 23003KT 5000 -RA BR FEW005/// BKN039/// OVC046/// ///TCU 12/12 Q1018

TAF TAF LFLS
Valido dal 20 a 03 ore il 21 a 03 ore UTC


200200Z 2003/2103 09005KT 9999 OVC020
TEMPO 2003/2007 4000 RA BKN005
BECMG 2009/2011 35005KT
TEMPO 2011/2016 -SHRA FEW020TCU BKN025
PROB40
TEMPO 2011/2016 4000 SHRA BKN020TCU
TEMPO 2100/2103 VRB02KT BKN005
ATIS : +33 4 76 65 55 89



MetMap, La meteo Aeronautica in un colpo d'occhio ! - Copyright ORBIFLY Dicembre 2007 - Disclaimer

ORBIFLY MET'MAP TEAM :

Programmazione e sviluppo : Alexandra Zaïnal
Concezione : Baudouin d'Aumeries
Aiuto per la programmazione : Marc-Olivier Méhu
Supporto tecnico e logistico : Manuel Goepfert
Aiuto per la traduzione : Arnaldo La Scala

Contatto : metmap@orbifly.com




FONTI E CREDITI :

   NOAA